createdAt,value
2023-02-14T00:01:20.729Z,33.10
2023-02-14T00:03:55.191Z,34.50
2023-02-14T00:06:23.736Z,33.20
2023-02-14T00:08:58.144Z,33.60
2023-02-14T00:11:26.785Z,31.20
2023-02-14T00:14:13.799Z,35.20
2023-02-14T00:16:42.737Z,33.90
2023-02-14T00:19:18.405Z,35.10
2023-02-14T00:21:50.547Z,33.30
2023-02-14T00:24:25.193Z,33.40
2023-02-14T00:26:58.918Z,33.20
2023-02-14T00:29:30.421Z,33.80
2023-02-14T00:32:07.901Z,35.40
2023-02-14T00:34:42.876Z,34.40
2023-02-14T00:37:17.077Z,36.00
2023-02-14T00:39:53.515Z,36.50
2023-02-14T00:42:22.053Z,32.20
2023-02-14T00:44:53.333Z,33.20
2023-02-14T00:47:21.968Z,32.20
2023-02-14T00:49:56.761Z,30.50
2023-02-14T00:52:27.340Z,31.90
2023-02-14T00:55:03.979Z,29.40
2023-02-14T00:57:35.471Z,30.60
2023-02-14T01:00:07.225Z,32.30
2023-02-14T01:02:42.365Z,33.00
2023-02-14T01:05:16.163Z,34.80
2023-02-14T01:07:50.439Z,36.80
2023-02-14T01:10:21.509Z,35.70
2023-02-14T01:12:56.306Z,33.90
2023-02-14T01:15:25.058Z,32.30
2023-02-14T01:18:00.094Z,30.60
2023-02-14T01:20:39.139Z,33.90
2023-02-14T01:23:13.618Z,28.60
2023-02-14T01:25:46.178Z,31.10
2023-02-14T01:28:17.631Z,32.90
2023-02-14T01:30:48.765Z,32.90
2023-02-14T01:33:20.449Z,34.60
2023-02-14T01:35:50.746Z,33.00
2023-02-14T01:38:19.932Z,32.50
2023-02-14T01:40:48.523Z,35.10
2023-02-14T01:43:19.561Z,31.10
2023-02-14T01:45:50.870Z,32.10
2023-02-14T01:48:23.121Z,31.70
2023-02-14T01:50:59.192Z,35.40
2023-02-14T01:53:30.193Z,32.40
2023-02-14T01:56:11.599Z,32.00
2023-02-14T01:58:49.805Z,28.60
2023-02-14T02:01:19.796Z,30.10
2023-02-14T02:03:56.141Z,28.80
2023-02-14T02:06:35.914Z,29.30
2023-02-14T02:09:14.122Z,29.70
2023-02-14T02:11:43.813Z,27.50
2023-02-14T02:14:18.564Z,30.00
2023-02-14T02:17:09.338Z,29.20
2023-02-14T02:20:12.261Z,27.70
2023-02-14T02:23:06.412Z,33.20
2023-02-14T02:26:06.161Z,27.30
2023-02-14T02:29:12.758Z,29.20
2023-02-14T02:32:05.134Z,32.00
2023-02-14T02:35:13.349Z,32.60
2023-02-14T02:38:03.739Z,33.80
2023-02-14T02:40:59.950Z,33.50
2023-02-14T02:43:57.886Z,33.50
2023-02-14T02:46:48.608Z,32.70
2023-02-14T02:49:51.970Z,32.60
2023-02-14T02:52:45.074Z,33.00
2023-02-14T02:55:27.863Z,33.70
2023-02-14T02:58:03.091Z,35.90
2023-02-14T03:00:43.298Z,36.90
2023-02-14T03:03:33.817Z,35.10
2023-02-14T03:06:07.871Z,32.00
2023-02-14T03:08:41.736Z,33.70
2023-02-14T03:11:14.044Z,37.10
2023-02-14T03:14:19.789Z,33.80
2023-02-14T03:16:57.662Z,32.00
2023-02-14T03:20:00.534Z,35.60
2023-02-14T03:22:50.149Z,33.70
2023-02-14T03:25:41.400Z,32.80
2023-02-14T03:28:31.069Z,34.20
2023-02-14T03:31:23.160Z,32.50
2023-02-14T03:34:01.066Z,33.60
2023-02-14T03:36:55.664Z,33.40
2023-02-14T03:39:57.293Z,33.70
2023-02-14T03:42:31.193Z,32.20
2023-02-14T03:45:04.906Z,32.90
2023-02-14T03:47:42.756Z,32.10
2023-02-14T03:50:20.272Z,29.50
2023-02-14T03:52:54.704Z,31.00
2023-02-14T03:55:32.949Z,30.10
2023-02-14T03:58:13.628Z,30.90
2023-02-14T04:00:46.475Z,26.40
2023-02-14T04:05:52.615Z,28.60
2023-02-14T04:08:27.938Z,28.50
2023-02-14T04:10:59.920Z,28.40
2023-02-14T04:13:35.681Z,30.80
2023-02-14T04:16:12.014Z,32.00
2023-02-14T04:19:07.571Z,31.50
2023-02-14T04:21:47.306Z,28.70
2023-02-14T04:24:16.637Z,29.70
2023-02-14T04:27:05.893Z,30.10
2023-02-14T04:29:50.295Z,30.70
2023-02-14T04:32:24.063Z,30.20
2023-02-14T04:34:55.456Z,30.60
2023-02-14T04:37:24.109Z,28.70
2023-02-14T04:39:52.825Z,29.20
2023-02-14T04:42:21.924Z,30.40
2023-02-14T04:44:50.501Z,31.40
2023-02-14T04:47:20.927Z,28.70
2023-02-14T04:49:51.837Z,28.90
2023-02-14T04:52:22.831Z,27.20
2023-02-14T04:55:17.652Z,28.80
2023-02-14T04:57:48.917Z,30.50
2023-02-14T05:00:18.173Z,31.00
2023-02-14T05:02:50.347Z,29.20
2023-02-14T05:05:20.479Z,28.40
2023-02-14T05:07:55.720Z,29.30
2023-02-14T05:10:24.283Z,31.40
2023-02-14T05:12:59.163Z,32.60
2023-02-14T05:15:27.958Z,32.30
2023-02-14T05:18:02.157Z,30.60
2023-02-14T05:20:36.560Z,32.80
2023-02-14T05:23:13.914Z,31.40
2023-02-14T05:25:45.367Z,31.90
2023-02-14T05:28:17.231Z,26.20
2023-02-14T05:30:51.771Z,32.10
2023-02-14T05:33:25.605Z,32.60
2023-02-14T05:36:00.755Z,28.80
2023-02-14T05:38:33.759Z,32.00
2023-02-14T05:41:02.796Z,30.20
2023-02-14T05:43:34.289Z,30.00
2023-02-14T05:51:30.711Z,27.20
2023-02-14T05:54:01.275Z,28.80
2023-02-14T05:56:34.402Z,29.90
2023-02-14T05:59:04.071Z,25.90
2023-02-14T06:01:35.677Z,24.90
2023-02-14T06:04:04.117Z,25.30
2023-02-14T06:06:31.599Z,27.10
2023-02-14T06:08:59.658Z,26.50
2023-02-14T06:11:29.094Z,28.30
2023-02-14T06:13:58.518Z,25.50
2023-02-14T06:16:28.565Z,25.10
2023-02-14T06:18:58.164Z,26.50
2023-02-14T06:21:33.401Z,27.00
2023-02-14T06:24:04.907Z,26.90
2023-02-14T06:29:09.870Z,22.60
2023-02-14T06:31:46.351Z,17.50
2023-02-14T06:34:16.482Z,17.40
2023-02-14T06:36:45.002Z,18.40
2023-02-14T06:39:24.346Z,19.50
2023-02-14T06:42:26.853Z,19.20
2023-02-14T06:44:57.434Z,17.30
2023-02-14T06:47:27.327Z,20.30
2023-02-14T06:49:55.089Z,21.80
2023-02-14T06:52:23.165Z,20.40
2023-02-14T06:55:05.271Z,18.90
2023-02-14T06:57:35.179Z,20.60
2023-02-14T07:00:03.088Z,17.80
2023-02-14T07:02:33.274Z,20.10
2023-02-14T07:05:00.893Z,19.80
2023-02-14T07:07:29.493Z,20.90
2023-02-14T07:09:58.095Z,18.90
2023-02-14T07:12:30.064Z,22.30
2023-02-14T07:15:07.754Z,21.80
2023-02-14T07:17:35.553Z,20.60
2023-02-14T07:20:08.892Z,21.80
2023-02-14T07:22:37.763Z,21.40
2023-02-14T07:25:07.816Z,25.50
2023-02-14T07:27:36.136Z,24.20
2023-02-14T07:30:05.687Z,19.90
2023-02-14T07:32:38.948Z,22.70
2023-02-14T07:35:11.131Z,22.40
2023-02-14T07:37:40.516Z,26.70
2023-02-14T07:40:14.379Z,26.30
2023-02-14T07:42:43.527Z,26.00
2023-02-14T07:45:22.037Z,28.60
2023-02-14T07:47:55.270Z,24.30
2023-02-14T07:50:24.013Z,24.70
2023-02-14T07:52:56.993Z,23.60
2023-02-14T07:55:30.124Z,24.90
2023-02-14T07:58:01.186Z,25.70
2023-02-14T08:00:28.744Z,25.10
2023-02-14T08:02:56.863Z,24.90
2023-02-14T08:05:24.389Z,22.60
2023-02-14T08:07:57.372Z,25.80
2023-02-14T08:10:24.573Z,22.90
2023-02-14T08:13:01.184Z,24.80
2023-02-14T08:15:51.394Z,25.00
2023-02-14T08:18:22.792Z,25.60
2023-02-14T08:20:50.738Z,23.20
2023-02-14T08:23:25.167Z,24.40
2023-02-14T08:25:58.780Z,22.40
2023-02-14T08:28:32.208Z,21.20
2023-02-14T08:31:09.980Z,22.50
2023-02-14T08:33:42.993Z,24.30
2023-02-14T08:36:10.510Z,20.00
2023-02-14T08:38:41.140Z,18.40
2023-02-14T08:41:09.410Z,18.70
2023-02-14T08:43:42.055Z,19.20
2023-02-14T08:46:12.078Z,18.90
2023-02-14T08:48:45.710Z,17.70
2023-02-14T08:51:14.745Z,20.70
2023-02-14T08:53:45.767Z,22.30
2023-02-14T08:56:14.321Z,22.90
2023-02-14T08:58:41.779Z,21.40
2023-02-14T09:01:19.093Z,22.90
2023-02-14T09:03:47.588Z,26.30
2023-02-14T09:06:17.791Z,21.80
2023-02-14T09:08:57.874Z,18.70
2023-02-14T09:11:27.587Z,20.00
2023-02-14T09:14:00.334Z,18.60
2023-02-14T09:16:27.636Z,21.60
2023-02-14T09:18:56.268Z,22.20
2023-02-14T09:21:26.474Z,20.50
2023-02-14T09:23:59.347Z,20.20
2023-02-14T09:26:27.010Z,19.90
2023-02-14T09:28:54.286Z,22.10
2023-02-14T09:31:23.970Z,21.90
2023-02-14T09:33:52.148Z,20.90
2023-02-14T09:36:37.769Z,24.40
2023-02-14T09:39:05.059Z,22.10
2023-02-14T09:41:56.793Z,24.60
2023-02-14T09:44:28.081Z,23.00
2023-02-14T09:47:00.870Z,19.20
2023-02-14T09:49:35.731Z,20.90
2023-02-14T09:52:07.327Z,19.40
2023-02-14T09:54:37.340Z,21.80
2023-02-14T09:57:21.741Z,20.60
2023-02-14T10:00:01.648Z,19.50
2023-02-14T10:03:00.492Z,20.00
2023-02-14T10:05:39.608Z,20.70
2023-02-14T10:08:39.031Z,21.70
2023-02-14T10:11:15.454Z,21.10
2023-02-14T10:13:50.996Z,23.10
2023-02-14T10:16:27.027Z,23.10
2023-02-14T10:19:19.989Z,24.60
2023-02-14T10:21:53.422Z,22.90
2023-02-14T10:24:32.990Z,21.50
2023-02-14T10:27:13.383Z,17.40
2023-02-14T10:29:44.973Z,20.40
2023-02-14T10:32:23.048Z,19.50
2023-02-14T10:35:00.168Z,19.00
2023-02-14T10:37:55.351Z,21.40
2023-02-14T10:40:46.610Z,23.00
2023-02-14T10:43:22.880Z,25.20
2023-02-14T10:46:07.644Z,22.90
2023-02-14T10:49:00.535Z,23.30
2023-02-14T10:51:34.062Z,20.40
2023-02-14T10:54:25.389Z,20.70
2023-02-14T10:56:59.854Z,21.40
2023-02-14T10:59:39.176Z,18.50
2023-02-14T11:02:15.599Z,31.00
2023-02-14T11:04:46.162Z,24.60
2023-02-14T11:07:14.998Z,22.00
2023-02-14T11:09:42.167Z,23.10
2023-02-14T11:12:09.762Z,22.30
2023-02-14T11:14:39.113Z,22.50
2023-02-14T11:17:36.818Z,23.50
2023-02-14T11:20:23.090Z,24.10
2023-02-14T11:22:50.627Z,21.00
2023-02-14T11:25:27.580Z,17.00
2023-02-14T11:28:21.562Z,23.30
2023-02-14T11:30:51.207Z,24.40
2023-02-14T11:33:37.310Z,25.70
2023-02-14T11:36:10.381Z,21.70
2023-02-14T11:38:39.525Z,21.30
2023-02-14T11:41:10.484Z,21.90
2023-02-14T11:43:43.947Z,20.30
2023-02-14T11:46:16.562Z,18.70
2023-02-14T11:48:56.011Z,18.40
2023-02-14T11:51:33.936Z,19.00
2023-02-14T11:54:05.769Z,21.30
2023-02-14T11:56:55.289Z,20.60
2023-02-14T11:59:26.677Z,23.30
2023-02-14T12:01:56.641Z,20.00
2023-02-14T12:04:46.322Z,19.90
2023-02-14T12:07:21.328Z,20.20
2023-02-14T12:10:08.020Z,18.70
2023-02-14T12:12:36.095Z,19.10
2023-02-14T12:15:24.260Z,18.00
2023-02-14T12:17:58.635Z,17.20
2023-02-14T12:20:42.221Z,16.40
2023-02-14T12:23:34.901Z,16.40
2023-02-14T12:26:22.651Z,19.40
2023-02-14T12:29:01.584Z,17.90
2023-02-14T12:31:29.698Z,18.60
2023-02-14T12:33:57.016Z,18.30
2023-02-14T12:36:43.308Z,20.70
2023-02-14T12:39:22.900Z,18.80
2023-02-14T12:42:25.496Z,16.20
2023-02-14T12:45:11.332Z,17.50
2023-02-14T12:47:55.966Z,13.90
2023-02-14T12:50:42.598Z,16.50
2023-02-14T12:53:28.540Z,16.20
2023-02-14T12:56:15.195Z,14.50
2023-02-14T12:59:08.564Z,16.60
2023-02-14T13:01:45.056Z,16.90
2023-02-14T13:04:20.205Z,15.50
2023-02-14T13:06:59.355Z,16.70
2023-02-14T13:09:45.280Z,18.70
2023-02-14T13:12:42.672Z,16.50
2023-02-14T13:15:33.368Z,20.50
2023-02-14T13:18:37.709Z,17.70
2023-02-14T13:21:13.268Z,16.70
2023-02-14T13:24:22.687Z,16.50
2023-02-14T13:27:01.408Z,15.90
2023-02-14T13:29:40.323Z,18.70
2023-02-14T13:32:15.527Z,17.80
2023-02-14T13:34:46.682Z,18.20
2023-02-14T13:37:21.357Z,19.40
2023-02-14T13:39:58.036Z,17.40
2023-02-14T13:43:21.716Z,17.30
2023-02-14T13:45:54.270Z,16.40
2023-02-14T13:48:29.270Z,16.00
2023-02-14T13:50:57.003Z,20.30
2023-02-14T13:53:40.028Z,17.80
2023-02-14T13:56:16.798Z,14.60
2023-02-14T13:58:51.765Z,16.30
2023-02-14T14:01:29.175Z,13.60
2023-02-14T14:04:00.023Z,15.50
2023-02-14T14:06:27.919Z,14.50
2023-02-14T14:08:56.469Z,13.40
2023-02-14T14:11:23.769Z,15.10
2023-02-14T14:14:14.884Z,16.50
2023-02-14T14:16:59.460Z,17.60
2023-02-14T14:19:26.859Z,18.40
2023-02-14T14:22:20.752Z,15.30
2023-02-14T14:24:53.220Z,17.00
2023-02-14T14:27:28.884Z,18.90
2023-02-14T14:30:15.316Z,16.70
2023-02-14T14:32:44.976Z,16.10
2023-02-14T14:35:12.354Z,16.90
2023-02-14T14:37:54.044Z,16.00
2023-02-14T14:40:31.629Z,21.20
2023-02-14T14:43:13.209Z,19.80
2023-02-14T14:45:41.246Z,21.50
2023-02-14T14:48:13.107Z,21.00
2023-02-14T14:50:45.696Z,24.70
2023-02-14T14:53:26.324Z,22.80
2023-02-14T14:55:56.520Z,24.80
2023-02-14T14:58:36.423Z,23.10
2023-02-14T15:01:06.035Z,23.80
2023-02-14T15:03:34.976Z,24.40
2023-02-14T15:06:19.841Z,22.30
2023-02-14T15:08:48.945Z,17.70
2023-02-14T15:11:42.994Z,20.30
2023-02-14T15:14:17.362Z,19.60
2023-02-14T15:16:50.121Z,22.20
2023-02-14T15:19:30.956Z,21.30
2023-02-14T15:22:06.049Z,20.60
2023-02-14T15:24:38.078Z,21.60
2023-02-14T15:27:14.173Z,30.60
2023-02-14T15:29:41.426Z,23.80
2023-02-14T15:32:10.849Z,28.20
2023-02-14T15:34:40.712Z,24.30
2023-02-14T15:37:11.154Z,21.10
2023-02-14T15:39:46.161Z,22.60
2023-02-14T15:42:26.388Z,18.80
2023-02-14T15:45:16.665Z,21.60
2023-02-14T15:47:49.042Z,22.20
2023-02-14T15:50:19.358Z,23.10
2023-02-14T15:52:53.359Z,20.30
2023-02-14T15:55:25.629Z,20.20
2023-02-14T15:58:03.734Z,20.80
2023-02-14T16:00:36.002Z,24.00
2023-02-14T16:03:11.447Z,20.20
2023-02-14T16:05:50.288Z,14.70
2023-02-14T16:08:40.552Z,18.00
2023-02-14T16:11:29.825Z,17.50
2023-02-14T16:13:57.833Z,17.20
2023-02-14T16:16:25.466Z,16.10
2023-02-14T16:18:56.685Z,17.80
2023-02-14T16:21:31.656Z,20.90
2023-02-14T16:24:11.032Z,18.40
2023-02-14T16:26:40.610Z,19.20
2023-02-14T16:29:16.535Z,21.70
2023-02-14T16:32:15.841Z,19.40
2023-02-14T16:34:43.215Z,19.00
2023-02-14T16:37:22.136Z,21.30
2023-02-14T16:39:54.217Z,20.60
2023-02-14T16:42:23.608Z,23.70
2023-02-14T16:44:53.788Z,23.00
2023-02-14T16:47:27.216Z,18.60
2023-02-14T16:49:59.607Z,19.40
2023-02-14T16:52:29.078Z,21.60
2023-02-14T16:54:59.823Z,19.80
2023-02-14T16:57:31.772Z,19.70
2023-02-14T16:59:59.022Z,21.90
2023-02-14T17:02:28.126Z,25.70
2023-02-14T17:04:56.123Z,24.20
2023-02-14T17:07:23.763Z,21.60
2023-02-14T17:09:55.615Z,25.80
2023-02-14T17:12:28.292Z,24.20
2023-02-14T17:15:00.695Z,22.20
2023-02-14T17:17:29.564Z,25.40
2023-02-14T17:19:57.947Z,27.20
2023-02-14T17:22:25.246Z,24.90
2023-02-14T17:24:52.538Z,26.90
2023-02-14T17:27:19.998Z,27.10
2023-02-14T17:29:51.693Z,25.60
2023-02-14T17:32:19.141Z,23.10
2023-02-14T17:34:46.586Z,18.50
2023-02-14T17:37:13.858Z,23.70
2023-02-14T17:39:43.457Z,21.50
2023-02-14T17:42:13.083Z,19.10
2023-02-14T17:44:40.426Z,20.50
2023-02-14T17:47:19.927Z,20.50
2023-02-14T17:49:52.874Z,18.50
2023-02-14T17:52:27.912Z,18.70
2023-02-14T17:54:58.237Z,17.00
2023-02-14T17:57:25.670Z,18.30
2023-02-14T17:59:57.728Z,16.40
2023-02-14T18:02:28.257Z,15.70
2023-02-14T18:04:57.316Z,14.50
2023-02-14T18:07:29.327Z,14.30
2023-02-14T18:09:59.709Z,13.40
2023-02-14T18:12:31.464Z,15.30
2023-02-14T18:14:58.818Z,15.10
2023-02-14T18:17:31.711Z,19.30
2023-02-14T18:20:06.424Z,16.50
2023-02-14T18:22:36.447Z,16.20
2023-02-14T18:25:09.918Z,16.80
2023-02-14T18:27:43.245Z,15.80
2023-02-14T18:30:22.405Z,17.20
2023-02-14T18:32:49.721Z,14.80
2023-02-14T18:35:19.996Z,14.10
2023-02-14T18:37:52.827Z,17.10
2023-02-14T18:42:55.153Z,17.30
2023-02-14T18:45:24.699Z,15.80
2023-02-14T18:47:57.964Z,15.60
2023-02-14T18:50:25.387Z,15.10
2023-02-14T18:52:58.559Z,14.40
2023-02-14T18:55:31.320Z,13.70
2023-02-14T18:57:58.631Z,15.90
2023-02-14T19:00:31.816Z,15.10
2023-02-14T19:03:00.697Z,14.60
2023-02-14T19:05:30.392Z,15.50
2023-02-14T19:07:58.559Z,17.20
2023-02-14T19:10:25.872Z,16.40
2023-02-14T19:12:55.969Z,16.50
2023-02-14T19:15:23.320Z,16.50
2023-02-14T19:17:53.846Z,19.40
2023-02-14T19:20:21.903Z,19.10
2023-02-14T19:22:52.733Z,19.70
2023-02-14T19:25:28.995Z,17.80
2023-02-14T19:28:00.952Z,16.00
2023-02-14T19:37:54.502Z,17.60
2023-02-14T19:40:21.718Z,17.10
2023-02-14T19:42:48.942Z,17.70
2023-02-14T19:45:16.618Z,14.70
2023-02-14T19:47:47.385Z,15.10
2023-02-14T19:50:14.811Z,14.40
2023-02-14T19:52:43.362Z,15.70
2023-02-14T19:55:25.430Z,15.20
2023-02-14T19:57:53.706Z,18.40
2023-02-14T20:00:20.819Z,15.80
2023-02-14T20:02:48.240Z,17.60
2023-02-14T20:05:17.521Z,17.10
2023-02-14T20:07:48.664Z,14.30
2023-02-14T20:10:15.799Z,17.20
2023-02-14T20:12:43.010Z,15.00
2023-02-14T20:15:11.058Z,15.80
2023-02-14T20:17:38.372Z,16.20
2023-02-14T20:20:07.366Z,17.50
2023-02-14T20:22:34.503Z,16.00
2023-02-14T20:25:02.017Z,16.50
2023-02-14T20:27:29.164Z,17.10
2023-02-14T20:29:56.475Z,20.00
2023-02-14T20:32:23.799Z,15.50
2023-02-14T20:34:51.373Z,18.70
2023-02-14T20:37:18.676Z,19.90
2023-02-14T20:39:46.095Z,18.30
2023-02-14T20:42:13.184Z,21.30
2023-02-14T20:44:41.018Z,19.50
2023-02-14T20:47:09.317Z,24.20
2023-02-14T20:49:36.639Z,20.70
2023-02-14T20:52:04.096Z,18.40
2023-02-14T20:54:31.301Z,18.60
2023-02-14T20:56:58.459Z,19.20
2023-02-14T20:59:29.043Z,18.70
2023-02-14T21:01:58.041Z,20.60
2023-02-14T21:04:25.714Z,20.40
2023-02-14T21:06:52.918Z,19.70
2023-02-14T21:09:20.309Z,21.60
2023-02-14T21:11:47.666Z,17.70
2023-02-14T21:14:16.954Z,17.80
2023-02-14T21:16:44.360Z,17.30
2023-02-14T21:19:11.454Z,17.60
2023-02-14T21:21:39.181Z,19.70
2023-02-14T21:24:09.347Z,18.50
2023-02-14T21:26:37.705Z,16.40
2023-02-14T21:29:06.154Z,18.60
2023-02-14T21:31:34.091Z,19.00
2023-02-14T21:34:02.653Z,16.80
2023-02-14T21:36:32.721Z,18.80
2023-02-14T21:39:05.322Z,18.20
2023-02-14T21:41:33.153Z,18.70
2023-02-14T21:44:02.212Z,19.70
2023-02-14T21:46:32.921Z,18.10
2023-02-14T21:49:20.442Z,18.40
2023-02-14T21:51:48.607Z,20.80
2023-02-14T21:54:17.066Z,19.40
2023-02-14T21:56:44.860Z,20.60
2023-02-14T21:59:17.460Z,19.20
2023-02-14T22:01:44.616Z,19.70
2023-02-14T22:04:12.714Z,18.00
2023-02-14T22:06:41.484Z,18.40
2023-02-14T22:09:10.581Z,22.40
2023-02-14T22:11:38.050Z,19.10
2023-02-14T22:14:05.346Z,20.90
2023-02-14T22:16:32.533Z,20.70
2023-02-14T22:19:00.021Z,19.80
2023-02-14T22:21:27.543Z,21.30
2023-02-14T22:23:55.253Z,22.60
2023-02-14T22:26:25.603Z,20.20
2023-02-14T22:28:56.348Z,22.90
2023-02-14T22:31:25.444Z,20.20
2023-02-14T22:33:53.249Z,17.40
2023-02-14T22:36:21.846Z,19.00
2023-02-14T22:38:49.450Z,18.10
2023-02-14T22:41:19.790Z,20.20
2023-02-14T22:43:47.933Z,20.10
2023-02-14T22:46:23.121Z,21.70
2023-02-14T22:48:53.891Z,22.90
2023-02-14T22:51:36.463Z,20.10
2023-02-14T22:54:12.942Z,22.10
2023-02-14T22:56:42.903Z,24.00
2023-02-14T22:59:21.402Z,23.30
2023-02-14T23:01:51.254Z,27.50
2023-02-14T23:04:22.786Z,21.00
2023-02-14T23:06:53.690Z,25.10
2023-02-14T23:09:25.222Z,19.40
2023-02-14T23:11:52.961Z,20.50
2023-02-14T23:14:38.577Z,19.70
2023-02-14T23:17:18.268Z,21.50
2023-02-14T23:20:04.286Z,23.50
2023-02-14T23:22:39.075Z,19.60
2023-02-14T23:25:09.660Z,21.50
2023-02-14T23:27:42.865Z,20.70
2023-02-14T23:30:15.542Z,21.10
2023-02-14T23:32:42.842Z,23.50
2023-02-14T23:35:12.495Z,20.60
2023-02-14T23:37:39.556Z,21.50
2023-02-14T23:40:07.322Z,19.70
2023-02-14T23:42:34.560Z,20.80
2023-02-14T23:45:19.936Z,22.30
2023-02-14T23:47:47.049Z,22.80
2023-02-14T23:50:17.282Z,22.60
2023-02-14T23:52:44.542Z,19.90
2023-02-14T23:55:12.087Z,23.40
2023-02-14T23:57:39.268Z,23.40
